Plymouth, MN (55446)

4:16 PM CDT on August 28, 2016 (GMT -0500)
Vicksburg | | Change Station

Elev 1008 ft 45.02 °N, 93.49 °W | Updated 188 days ago

Clear
Clear
80 °F
Feels Like 83 °F
N
7
Wind Variable Wind from SSE
Gusts 12 mph

Today
High -- | Low -- °F
--% Chance of Precip.
Yesterday
High -- | Low -- °F
Precip. -- in
Pressure 30.08 in
Visibility 10.0 miles
Clouds Few 3700 ft
Heat Index 83 °F
Dew Point 67 °F
Humidity 65%
Rainfall in
Snow Depth Not available.
6:31 AM 7:57 PM
Waning Crescent, 13% visible
METAR KMIC 282053Z 15009KT 10SM FEW037 29/19 A3008 RMK AO2 SLP184 T02890189 56012
Pressure 30.08 in
Visibility 10.0 miles
Clouds Few 3700 ft
Heat Index 83 °F
Dew Point 67 °F
Humidity 65%
Rainfall in
Snow Depth Not available.
6:31 AM 7:57 PM
Waning Crescent, 13% visible
METAR KMIC 282053Z 15009KT 10SM FEW037 29/19 A3008 RMK AO2 SLP184 T02890189 56012

10-Day Weather Forecast

Almanac

Astronomy

Aug. 28, 2016 Rise Set
Actual Time
Civil Twilight
Nautical Twilight
Astronomical Twilight
Moon
Length of Visible Light
Length of Day
Tomorrow will be .
, % of the Moon is Illuminated

Today's Extremes

State Highs State Lows

Community

WunderPhotos

Upload Photos

1,935,692 photos uploaded!

WunderBlog® & News

Nearby

Air Quality

  Air Quality AQ Index Pollutant
Not available.

Snow Depth

Station Depth Elevation

Earthquake Activity

City Distance Mag. Time & Date
Minimum magnitude displayed is 2.5.

Coastal Water Temperatures

Place Temperature

Stations

Nearby Weather Stations

Station Location Temp. Windchill Dew Point Humidity Wind Precip. Elev Updated Type
                   

Watches & Warnings

There are currently no watches in effect.